sensor_id;sensor_type;location;lat;lon;timestamp;P1;durP1;ratioP1;P2;durP2;ratioP2
51838;SDS011;37886;53.174;6.368;2022-07-21T00:01:47;13.52;;;7.18;;
51838;SDS011;37886;53.174;6.368;2022-07-21T00:04:14;19.27;;;8.63;;
51838;SDS011;37886;53.174;6.368;2022-07-21T00:06:41;22.65;;;8.00;;
51838;SDS011;37886;53.174;6.368;2022-07-21T00:09:07;13.73;;;8.27;;
51838;SDS011;37886;53.174;6.368;2022-07-21T00:11:34;14.93;;;8.43;;
51838;SDS011;37886;53.174;6.368;2022-07-21T00:14:00;16.75;;;7.90;;
51838;SDS011;37886;53.174;6.368;2022-07-21T00:16:25;20.05;;;8.75;;
51838;SDS011;37886;53.174;6.368;2022-07-21T00:18:51;17.30;;;8.52;;
51838;SDS011;37886;53.174;6.368;2022-07-21T00:21:17;15.73;;;8.38;;
51838;SDS011;37886;53.174;6.368;2022-07-21T00:23:42;20.45;;;8.82;;
51838;SDS011;37886;53.174;6.368;2022-07-21T00:26:08;18.02;;;9.82;;
51838;SDS011;37886;53.174;6.368;2022-07-21T00:28:34;17.33;;;8.88;;
51838;SDS011;37886;53.174;6.368;2022-07-21T00:31:00;16.80;;;9.93;;
51838;SDS011;37886;53.174;6.368;2022-07-21T00:33:25;18.92;;;10.88;;
51838;SDS011;37886;53.174;6.368;2022-07-21T00:35:51;16.08;;;9.90;;
51838;SDS011;37886;53.174;6.368;2022-07-21T00:38:17;15.30;;;9.98;;
51838;SDS011;37886;53.174;6.368;2022-07-21T00:40:42;22.90;;;11.18;;
51838;SDS011;37886;53.174;6.368;2022-07-21T00:43:11;16.80;;;10.45;;
51838;SDS011;37886;53.174;6.368;2022-07-21T00:45:37;18.95;;;10.63;;
51838;SDS011;37886;53.174;6.368;2022-07-21T00:48:03;19.77;;;11.80;;
51838;SDS011;37886;53.174;6.368;2022-07-21T00:50:29;22.60;;;11.13;;
51838;SDS011;37886;53.174;6.368;2022-07-21T00:52:56;24.15;;;12.98;;
51838;SDS011;37886;53.174;6.368;2022-07-21T00:55:22;21.45;;;12.20;;
51838;SDS011;37886;53.174;6.368;2022-07-21T00:57:48;20.15;;;13.20;;
51838;SDS011;37886;53.174;6.368;2022-07-21T01:00:19;18.73;;;12.35;;
51838;SDS011;37886;53.174;6.368;2022-07-21T01:02:50;21.75;;;12.68;;
51838;SDS011;37886;53.174;6.368;2022-07-21T01:05:16;21.73;;;13.98;;
51838;SDS011;37886;53.174;6.368;2022-07-21T01:07:48;27.27;;;14.85;;
51838;SDS011;37886;53.174;6.368;2022-07-21T01:10:16;17.50;;;12.88;;
51838;SDS011;37886;53.174;6.368;2022-07-21T01:12:43;26.73;;;14.00;;
51838;SDS011;37886;53.174;6.368;2022-07-21T01:15:10;24.10;;;13.82;;
51838;SDS011;37886;53.174;6.368;2022-07-21T01:17:37;26.92;;;14.65;;
51838;SDS011;37886;53.174;6.368;2022-07-21T01:20:07;25.83;;;14.40;;
51838;SDS011;37886;53.174;6.368;2022-07-21T01:22:36;22.55;;;14.60;;
51838;SDS011;37886;53.174;6.368;2022-07-21T01:25:04;27.40;;;14.70;;
51838;SDS011;37886;53.174;6.368;2022-07-21T01:27:30;23.85;;;14.18;;
51838;SDS011;37886;53.174;6.368;2022-07-21T01:29:57;22.67;;;13.35;;
51838;SDS011;37886;53.174;6.368;2022-07-21T01:32:23;23.10;;;13.57;;
51838;SDS011;37886;53.174;6.368;2022-07-21T01:34:49;27.95;;;14.00;;
51838;SDS011;37886;53.174;6.368;2022-07-21T01:37:19;24.80;;;15.32;;
51838;SDS011;37886;53.174;6.368;2022-07-21T01:39:52;28.98;;;15.40;;
51838;SDS011;37886;53.174;6.368;2022-07-21T01:42:36;23.88;;;15.27;;
51838;SDS011;37886;53.174;6.368;2022-07-21T01:45:03;25.00;;;14.65;;
51838;SDS011;37886;53.174;6.368;2022-07-21T01:47:29;26.30;;;14.10;;
51838;SDS011;37886;53.174;6.368;2022-07-21T01:49:56;24.85;;;14.73;;
51838;SDS011;37886;53.174;6.368;2022-07-21T01:52:21;22.85;;;14.85;;
51838;SDS011;37886;53.174;6.368;2022-07-21T01:54:47;33.75;;;17.85;;
51838;SDS011;37886;53.174;6.368;2022-07-21T01:57:13;32.15;;;17.58;;
51838;SDS011;37886;53.174;6.368;2022-07-21T01:59:39;34.92;;;18.75;;
51838;SDS011;37886;53.174;6.368;2022-07-21T02:02:04;27.80;;;17.45;;
51838;SDS011;37886;53.174;6.368;2022-07-21T02:04:30;34.53;;;19.02;;
51838;SDS011;37886;53.174;6.368;2022-07-21T02:06:56;32.63;;;16.55;;
51838;SDS011;37886;53.174;6.368;2022-07-21T02:09:21;32.58;;;17.70;;
51838;SDS011;37886;53.174;6.368;2022-07-21T02:11:47;37.63;;;20.30;;
51838;SDS011;37886;53.174;6.368;2022-07-21T02:14:13;34.85;;;19.98;;
51838;SDS011;37886;53.174;6.368;2022-07-21T02:16:38;30.10;;;18.55;;
51838;SDS011;37886;53.174;6.368;2022-07-21T02:19:07;44.65;;;20.58;;
51838;SDS011;37886;53.174;6.368;2022-07-21T02:21:33;35.67;;;20.05;;
51838;SDS011;37886;53.174;6.368;2022-07-21T02:23:59;42.35;;;20.73;;
51838;SDS011;37886;53.174;6.368;2022-07-21T02:26:25;40.58;;;21.83;;
51838;SDS011;37886;53.174;6.368;2022-07-21T02:28:50;39.75;;;21.67;;
51838;SDS011;37886;53.174;6.368;2022-07-21T02:31:16;48.67;;;23.80;;
51838;SDS011;37886;53.174;6.368;2022-07-21T02:33:42;31.88;;;21.80;;
51838;SDS011;37886;53.174;6.368;2022-07-21T02:36:07;41.25;;;22.95;;
51838;SDS011;37886;53.174;6.368;2022-07-21T02:38:33;40.88;;;22.20;;
51838;SDS011;37886;53.174;6.368;2022-07-21T02:40:59;40.40;;;21.65;;
51838;SDS011;37886;53.174;6.368;2022-07-21T02:43:25;39.78;;;21.35;;
51838;SDS011;37886;53.174;6.368;2022-07-21T02:45:50;41.30;;;21.33;;
51838;SDS011;37886;53.174;6.368;2022-07-21T02:48:16;36.92;;;21.75;;
51838;SDS011;37886;53.174;6.368;2022-07-21T02:50:43;35.15;;;21.20;;
51838;SDS011;37886;53.174;6.368;2022-07-21T02:53:10;36.13;;;21.35;;
51838;SDS011;37886;53.174;6.368;2022-07-21T02:55:44;39.33;;;23.27;;
51838;SDS011;37886;53.174;6.368;2022-07-21T02:58:15;43.03;;;23.98;;
51838;SDS011;37886;53.174;6.368;2022-07-21T03:03:16;37.58;;;23.05;;
51838;SDS011;37886;53.174;6.368;2022-07-21T03:05:43;42.53;;;23.88;;
51838;SDS011;37886;53.174;6.368;2022-07-21T03:08:09;31.67;;;22.40;;
51838;SDS011;37886;53.174;6.368;2022-07-21T03:10:36;40.20;;;23.33;;
51838;SDS011;37886;53.174;6.368;2022-07-21T03:13:03;43.90;;;24.13;;
51838;SDS011;37886;53.174;6.368;2022-07-21T03:15:29;40.60;;;24.15;;
51838;SDS011;37886;53.174;6.368;2022-07-21T03:17:56;42.20;;;25.40;;
51838;SDS011;37886;53.174;6.368;2022-07-21T03:20:25;43.38;;;26.20;;
51838;SDS011;37886;53.174;6.368;2022-07-21T03:22:53;46.22;;;26.83;;
51838;SDS011;37886;53.174;6.368;2022-07-21T03:25:19;42.30;;;25.35;;
51838;SDS011;37886;53.174;6.368;2022-07-21T03:27:46;44.83;;;24.60;;
51838;SDS011;37886;53.174;6.368;2022-07-21T03:30:12;44.45;;;26.20;;
51838;SDS011;37886;53.174;6.368;2022-07-21T03:32:38;47.17;;;27.60;;
51838;SDS011;37886;53.174;6.368;2022-07-21T03:35:05;42.33;;;26.38;;
51838;SDS011;37886;53.174;6.368;2022-07-21T03:37:32;52.17;;;28.17;;
51838;SDS011;37886;53.174;6.368;2022-07-21T03:39:58;47.88;;;29.10;;
51838;SDS011;37886;53.174;6.368;2022-07-21T03:42:24;41.85;;;26.13;;
51838;SDS011;37886;53.174;6.368;2022-07-21T03:44:49;52.15;;;27.98;;
51838;SDS011;37886;53.174;6.368;2022-07-21T03:47:15;44.08;;;29.33;;
51838;SDS011;37886;53.174;6.368;2022-07-21T03:49:41;47.80;;;28.80;;
51838;SDS011;37886;53.174;6.368;2022-07-21T03:52:07;42.40;;;27.83;;
51838;SDS011;37886;53.174;6.368;2022-07-21T03:54:32;51.22;;;30.23;;
51838;SDS011;37886;53.174;6.368;2022-07-21T03:56:58;41.00;;;28.92;;
51838;SDS011;37886;53.174;6.368;2022-07-21T03:59:24;47.42;;;31.30;;
51838;SDS011;37886;53.174;6.368;2022-07-21T04:01:49;50.50;;;29.73;;
51838;SDS011;37886;53.174;6.368;2022-07-21T04:04:15;45.58;;;29.55;;
51838;SDS011;37886;53.174;6.368;2022-07-21T04:06:41;62.40;;;31.83;;
51838;SDS011;37886;53.174;6.368;2022-07-21T04:09:06;55.67;;;31.38;;
51838;SDS011;37886;53.174;6.368;2022-07-21T04:11:32;56.72;;;32.15;;
51838;SDS011;37886;53.174;6.368;2022-07-21T04:13:58;58.85;;;30.95;;
51838;SDS011;37886;53.174;6.368;2022-07-21T04:16:24;54.17;;;32.03;;
51838;SDS011;37886;53.174;6.368;2022-07-21T04:18:50;58.97;;;34.05;;
51838;SDS011;37886;53.174;6.368;2022-07-21T04:21:15;60.20;;;33.90;;
51838;SDS011;37886;53.174;6.368;2022-07-21T04:23:41;56.70;;;34.08;;
51838;SDS011;37886;53.174;6.368;2022-07-21T04:26:07;57.53;;;34.42;;
51838;SDS011;37886;53.174;6.368;2022-07-21T04:28:35;66.10;;;35.17;;
51838;SDS011;37886;53.174;6.368;2022-07-21T04:31:01;63.80;;;34.63;;
51838;SDS011;37886;53.174;6.368;2022-07-21T04:33:29;58.28;;;34.97;;
51838;SDS011;37886;53.174;6.368;2022-07-21T04:35:55;61.15;;;35.90;;
51838;SDS011;37886;53.174;6.368;2022-07-21T04:38:21;59.50;;;38.05;;
51838;SDS011;37886;53.174;6.368;2022-07-21T04:40:47;62.00;;;36.03;;
51838;SDS011;37886;53.174;6.368;2022-07-21T04:43:12;67.88;;;39.95;;
51838;SDS011;37886;53.174;6.368;2022-07-21T04:45:38;58.92;;;37.33;;
51838;SDS011;37886;53.174;6.368;2022-07-21T04:48:04;65.32;;;38.78;;
51838;SDS011;37886;53.174;6.368;2022-07-21T04:50:30;57.05;;;36.55;;
51838;SDS011;37886;53.174;6.368;2022-07-21T04:52:57;62.25;;;36.60;;
51838;SDS011;37886;53.174;6.368;2022-07-21T04:55:24;54.35;;;35.42;;
51838;SDS011;37886;53.174;6.368;2022-07-21T04:57:51;49.65;;;34.10;;
51838;SDS011;37886;53.174;6.368;2022-07-21T05:00:22;43.38;;;32.92;;
51838;SDS011;37886;53.174;6.368;2022-07-21T05:02:50;44.75;;;33.03;;
51838;SDS011;37886;53.174;6.368;2022-07-21T05:05:17;48.20;;;32.10;;
51838;SDS011;37886;53.174;6.368;2022-07-21T05:07:46;49.97;;;34.42;;
51838;SDS011;37886;53.174;6.368;2022-07-21T05:10:13;44.42;;;32.28;;
51838;SDS011;37886;53.174;6.368;2022-07-21T05:12:40;45.63;;;31.88;;
51838;SDS011;37886;53.174;6.368;2022-07-21T05:15:07;42.38;;;31.63;;
51838;SDS011;37886;53.174;6.368;2022-07-21T05:17:34;45.95;;;31.50;;
51838;SDS011;37886;53.174;6.368;2022-07-21T05:20:00;42.67;;;30.73;;
51838;SDS011;37886;53.174;6.368;2022-07-21T05:22:27;42.30;;;30.98;;
51838;SDS011;37886;53.174;6.368;2022-07-21T05:24:52;38.58;;;29.88;;
51838;SDS011;37886;53.174;6.368;2022-07-21T05:27:18;40.83;;;29.33;;
51838;SDS011;37886;53.174;6.368;2022-07-21T05:29:44;35.97;;;28.45;;
51838;SDS011;37886;53.174;6.368;2022-07-21T05:32:10;41.92;;;28.13;;
51838;SDS011;37886;53.174;6.368;2022-07-21T05:34:36;37.50;;;28.70;;
51838;SDS011;37886;53.174;6.368;2022-07-21T05:37:01;43.97;;;29.15;;
51838;SDS011;37886;53.174;6.368;2022-07-21T05:39:27;41.63;;;31.00;;
51838;SDS011;37886;53.174;6.368;2022-07-21T05:41:53;41.60;;;30.98;;
51838;SDS011;37886;53.174;6.368;2022-07-21T05:44:19;42.38;;;30.73;;
51838;SDS011;37886;53.174;6.368;2022-07-21T05:46:45;40.03;;;28.50;;
51838;SDS011;37886;53.174;6.368;2022-07-21T05:49:11;40.30;;;29.25;;
51838;SDS011;37886;53.174;6.368;2022-07-21T05:51:36;37.00;;;30.30;;
51838;SDS011;37886;53.174;6.368;2022-07-21T05:54:05;37.72;;;29.17;;
51838;SDS011;37886;53.174;6.368;2022-07-21T05:56:31;36.53;;;28.35;;
51838;SDS011;37886;53.174;6.368;2022-07-21T05:58:56;39.33;;;28.58;;
51838;SDS011;37886;53.174;6.368;2022-07-21T06:01:22;38.35;;;27.83;;
51838;SDS011;37886;53.174;6.368;2022-07-21T06:03:51;37.28;;;28.45;;
51838;SDS011;37886;53.174;6.368;2022-07-21T06:06:17;38.92;;;29.58;;
51838;SDS011;37886;53.174;6.368;2022-07-21T06:08:45;37.75;;;28.33;;
51838;SDS011;37886;53.174;6.368;2022-07-21T06:11:14;37.25;;;28.77;;
51838;SDS011;37886;53.174;6.368;2022-07-21T06:13:42;38.03;;;27.92;;
51838;SDS011;37886;53.174;6.368;2022-07-21T06:16:09;33.20;;;27.25;;
51838;SDS011;37886;53.174;6.368;2022-07-21T06:18:35;41.42;;;27.17;;
51838;SDS011;37886;53.174;6.368;2022-07-21T06:21:01;37.50;;;26.27;;
51838;SDS011;37886;53.174;6.368;2022-07-21T06:23:27;35.42;;;28.17;;
51838;SDS011;37886;53.174;6.368;2022-07-21T06:25:53;35.90;;;28.27;;
51838;SDS011;37886;53.174;6.368;2022-07-21T06:28:19;34.13;;;28.00;;
51838;SDS011;37886;53.174;6.368;2022-07-21T06:30:46;35.67;;;28.33;;
51838;SDS011;37886;53.174;6.368;2022-07-21T06:33:12;33.47;;;27.75;;
51838;SDS011;37886;53.174;6.368;2022-07-21T06:35:41;36.40;;;29.00;;
51838;SDS011;37886;53.174;6.368;2022-07-21T06:38:07;39.83;;;29.63;;
51838;SDS011;37886;53.174;6.368;2022-07-21T06:40:33;40.60;;;29.80;;
51838;SDS011;37886;53.174;6.368;2022-07-21T06:43:00;40.50;;;31.30;;
51838;SDS011;37886;53.174;6.368;2022-07-21T06:45:25;41.10;;;32.05;;
51838;SDS011;37886;53.174;6.368;2022-07-21T06:47:58;40.08;;;31.88;;
51838;SDS011;37886;53.174;6.368;2022-07-21T06:50:25;38.95;;;32.28;;
51838;SDS011;37886;53.174;6.368;2022-07-21T06:52:51;45.85;;;33.65;;
51838;SDS011;37886;53.174;6.368;2022-07-21T06:55:17;45.40;;;34.92;;
51838;SDS011;37886;53.174;6.368;2022-07-21T06:57:43;44.35;;;30.98;;
51838;SDS011;37886;53.174;6.368;2022-07-21T07:00:09;45.03;;;34.55;;
51838;SDS011;37886;53.174;6.368;2022-07-21T07:02:36;42.15;;;33.05;;
51838;SDS011;37886;53.174;6.368;2022-07-21T07:05:01;46.13;;;36.92;;
51838;SDS011;37886;53.174;6.368;2022-07-21T07:07:28;40.47;;;33.60;;
51838;SDS011;37886;53.174;6.368;2022-07-21T07:09:55;43.58;;;34.75;;
51838;SDS011;37886;53.174;6.368;2022-07-21T07:12:21;40.28;;;33.00;;
51838;SDS011;37886;53.174;6.368;2022-07-21T07:14:47;42.65;;;33.92;;
51838;SDS011;37886;53.174;6.368;2022-07-21T07:17:17;43.30;;;34.63;;
51838;SDS011;37886;53.174;6.368;2022-07-21T07:19:49;43.10;;;35.47;;
51838;SDS011;37886;53.174;6.368;2022-07-21T07:22:14;41.28;;;32.25;;
51838;SDS011;37886;53.174;6.368;2022-07-21T07:24:40;38.17;;;32.53;;
51838;SDS011;37886;53.174;6.368;2022-07-21T07:27:06;33.92;;;30.25;;
51838;SDS011;37886;53.174;6.368;2022-07-21T07:29:32;33.45;;;29.83;;
51838;SDS011;37886;53.174;6.368;2022-07-21T07:31:58;36.83;;;30.50;;
51838;SDS011;37886;53.174;6.368;2022-07-21T07:34:24;33.15;;;29.55;;
51838;SDS011;37886;53.174;6.368;2022-07-21T07:36:50;32.40;;;28.35;;
51838;SDS011;37886;53.174;6.368;2022-07-21T07:39:16;31.50;;;28.27;;
51838;SDS011;37886;53.174;6.368;2022-07-21T07:41:41;32.40;;;27.50;;
51838;SDS011;37886;53.174;6.368;2022-07-21T07:44:08;35.47;;;29.60;;
51838;SDS011;37886;53.174;6.368;2022-07-21T07:46:34;31.55;;;28.02;;
51838;SDS011;37886;53.174;6.368;2022-07-21T07:48:59;31.60;;;28.02;;
51838;SDS011;37886;53.174;6.368;2022-07-21T07:51:25;34.90;;;30.73;;
51838;SDS011;37886;53.174;6.368;2022-07-21T07:53:51;36.13;;;31.15;;
51838;SDS011;37886;53.174;6.368;2022-07-21T07:56:17;35.63;;;30.90;;
51838;SDS011;37886;53.174;6.368;2022-07-21T07:58:43;35.08;;;29.45;;
51838;SDS011;37886;53.174;6.368;2022-07-21T08:01:09;35.38;;;29.38;;
51838;SDS011;37886;53.174;6.368;2022-07-21T08:03:35;36.30;;;30.73;;
51838;SDS011;37886;53.174;6.368;2022-07-21T08:06:02;35.67;;;30.75;;
51838;SDS011;37886;53.174;6.368;2022-07-21T08:08:32;32.53;;;28.98;;
51838;SDS011;37886;53.174;6.368;2022-07-21T08:10:58;36.80;;;32.45;;
51838;SDS011;37886;53.174;6.368;2022-07-21T08:13:24;35.58;;;31.40;;
51838;SDS011;37886;53.174;6.368;2022-07-21T08:15:50;37.78;;;30.42;;
51838;SDS011;37886;53.174;6.368;2022-07-21T08:18:16;38.88;;;33.35;;
51838;SDS011;37886;53.174;6.368;2022-07-21T08:20:43;37.97;;;31.00;;
51838;SDS011;37886;53.174;6.368;2022-07-21T08:23:09;34.28;;;30.33;;
51838;SDS011;37886;53.174;6.368;2022-07-21T08:25:35;34.22;;;29.65;;
51838;SDS011;37886;53.174;6.368;2022-07-21T08:28:01;39.13;;;28.25;;
51838;SDS011;37886;53.174;6.368;2022-07-21T08:30:27;36.95;;;31.02;;
51838;SDS011;37886;53.174;6.368;2022-07-21T08:32:52;36.08;;;30.48;;
51838;SDS011;37886;53.174;6.368;2022-07-21T08:35:18;35.20;;;30.65;;
51838;SDS011;37886;53.174;6.368;2022-07-21T08:37:52;41.92;;;34.42;;
51838;SDS011;37886;53.174;6.368;2022-07-21T08:40:22;35.88;;;31.02;;
51838;SDS011;37886;53.174;6.368;2022-07-21T08:42:50;37.92;;;33.03;;
51838;SDS011;37886;53.174;6.368;2022-07-21T08:45:17;48.78;;;36.10;;
51838;SDS011;37886;53.174;6.368;2022-07-21T08:47:42;41.40;;;34.25;;
51838;SDS011;37886;53.174;6.368;2022-07-21T08:50:08;40.03;;;34.55;;
51838;SDS011;37886;53.174;6.368;2022-07-21T08:52:34;40.85;;;33.65;;
51838;SDS011;37886;53.174;6.368;2022-07-21T08:55:00;39.67;;;33.50;;
51838;SDS011;37886;53.174;6.368;2022-07-21T08:57:26;44.70;;;35.78;;
51838;SDS011;37886;53.174;6.368;2022-07-21T08:59:52;41.40;;;35.15;;
51838;SDS011;37886;53.174;6.368;2022-07-21T09:02:31;44.72;;;35.45;;
51838;SDS011;37886;53.174;6.368;2022-07-21T09:04:59;44.40;;;36.03;;
51838;SDS011;37886;53.174;6.368;2022-07-21T09:07:25;42.85;;;36.42;;
51838;SDS011;37886;53.174;6.368;2022-07-21T09:09:58;45.92;;;38.20;;
51838;SDS011;37886;53.174;6.368;2022-07-21T09:12:25;46.13;;;40.00;;
51838;SDS011;37886;53.174;6.368;2022-07-21T09:14:51;54.47;;;42.80;;
51838;SDS011;37886;53.174;6.368;2022-07-21T09:17:18;54.55;;;42.78;;
51838;SDS011;37886;53.174;6.368;2022-07-21T09:19:45;46.85;;;39.08;;
51838;SDS011;37886;53.174;6.368;2022-07-21T09:22:16;49.40;;;41.40;;
51838;SDS011;37886;53.174;6.368;2022-07-21T09:24:53;53.97;;;40.67;;
51838;SDS011;37886;53.174;6.368;2022-07-21T09:27:22;49.55;;;40.90;;
51838;SDS011;37886;53.174;6.368;2022-07-21T09:32:16;52.20;;;43.25;;
51838;SDS011;37886;53.174;6.368;2022-07-21T09:34:46;55.08;;;45.20;;
51838;SDS011;37886;53.174;6.368;2022-07-21T09:37:13;57.42;;;45.55;;
51838;SDS011;37886;53.174;6.368;2022-07-21T09:39:40;54.50;;;46.95;;
51838;SDS011;37886;53.174;6.368;2022-07-21T09:44:40;61.00;;;49.35;;
51838;SDS011;37886;53.174;6.368;2022-07-21T09:47:14;57.55;;;46.58;;
51838;SDS011;37886;53.174;6.368;2022-07-21T09:49:43;55.20;;;44.10;;
51838;SDS011;37886;53.174;6.368;2022-07-21T09:52:19;53.13;;;46.55;;
51838;SDS011;37886;53.174;6.368;2022-07-21T09:57:34;53.70;;;45.53;;
51838;SDS011;37886;53.174;6.368;2022-07-21T10:00:00;52.13;;;43.55;;
51838;SDS011;37886;53.174;6.368;2022-07-21T10:02:29;54.03;;;45.40;;
51838;SDS011;37886;53.174;6.368;2022-07-21T10:05:09;56.53;;;46.88;;
51838;SDS011;37886;53.174;6.368;2022-07-21T10:07:41;54.92;;;44.97;;
51838;SDS011;37886;53.174;6.368;2022-07-21T10:10:09;54.78;;;47.35;;
51838;SDS011;37886;53.174;6.368;2022-07-21T10:12:35;54.45;;;45.85;;
51838;SDS011;37886;53.174;6.368;2022-07-21T10:15:01;49.92;;;43.35;;
51838;SDS011;37886;53.174;6.368;2022-07-21T10:17:27;56.83;;;46.72;;
51838;SDS011;37886;53.174;6.368;2022-07-21T10:20:11;51.20;;;44.08;;
51838;SDS011;37886;53.174;6.368;2022-07-21T10:25:13;54.85;;;45.65;;
51838;SDS011;37886;53.174;6.368;2022-07-21T10:28:01;61.72;;;46.90;;
51838;SDS011;37886;53.174;6.368;2022-07-21T10:33:11;54.28;;;44.50;;
51838;SDS011;37886;53.174;6.368;2022-07-21T10:35:42;61.65;;;48.58;;
51838;SDS011;37886;53.174;6.368;2022-07-21T10:38:28;59.33;;;47.40;;
51838;SDS011;37886;53.174;6.368;2022-07-21T10:40:56;61.53;;;49.35;;
51838;SDS011;37886;53.174;6.368;2022-07-21T10:45:49;55.40;;;45.47;;
51838;SDS011;37886;53.174;6.368;2022-07-21T10:53:40;52.92;;;43.15;;
51838;SDS011;37886;53.174;6.368;2022-07-21T10:56:07;51.42;;;44.00;;
51838;SDS011;37886;53.174;6.368;2022-07-21T11:03:40;45.80;;;36.58;;
51838;SDS011;37886;53.174;6.368;2022-07-21T11:06:23;43.70;;;36.85;;
51838;SDS011;37886;53.174;6.368;2022-07-21T11:08:51;47.10;;;36.15;;
51838;SDS011;37886;53.174;6.368;2022-07-21T11:11:25;40.35;;;34.28;;
51838;SDS011;37886;53.174;6.368;2022-07-21T11:21:55;28.92;;;25.75;;
51838;SDS011;37886;53.174;6.368;2022-07-21T11:24:23;30.15;;;25.15;;
51838;SDS011;37886;53.174;6.368;2022-07-21T11:29:26;23.45;;;20.95;;
51838;SDS011;37886;53.174;6.368;2022-07-21T11:31:52;22.85;;;20.38;;
51838;SDS011;37886;53.174;6.368;2022-07-21T11:34:19;21.52;;;18.45;;
51838;SDS011;37886;53.174;6.368;2022-07-21T11:36:45;23.50;;;19.40;;
51838;SDS011;37886;53.174;6.368;2022-07-21T11:39:11;20.98;;;17.80;;
51838;SDS011;37886;53.174;6.368;2022-07-21T11:41:39;21.13;;;18.92;;
51838;SDS011;37886;53.174;6.368;2022-07-21T11:44:07;20.95;;;17.42;;
51838;SDS011;37886;53.174;6.368;2022-07-21T11:46:48;19.38;;;17.10;;
51838;SDS011;37886;53.174;6.368;2022-07-21T11:49:18;20.88;;;16.05;;
51838;SDS011;37886;53.174;6.368;2022-07-21T11:51:48;19.70;;;17.35;;
51838;SDS011;37886;53.174;6.368;2022-07-21T11:54:29;20.23;;;17.02;;
51838;SDS011;37886;53.174;6.368;2022-07-21T11:56:56;15.95;;;13.80;;
51838;SDS011;37886;53.174;6.368;2022-07-21T11:59:23;17.17;;;13.20;;
51838;SDS011;37886;53.174;6.368;2022-07-21T12:04:49;16.15;;;14.05;;
51838;SDS011;37886;53.174;6.368;2022-07-21T12:07:19;20.52;;;16.48;;
51838;SDS011;37886;53.174;6.368;2022-07-21T12:09:46;17.85;;;15.98;;
51838;SDS011;37886;53.174;6.368;2022-07-21T12:12:26;28.10;;;16.95;;
51838;SDS011;37886;53.174;6.368;2022-07-21T12:14:57;22.70;;;17.40;;
51838;SDS011;37886;53.174;6.368;2022-07-21T12:17:43;18.38;;;16.38;;
51838;SDS011;37886;53.174;6.368;2022-07-21T12:20:11;18.10;;;16.38;;
51838;SDS011;37886;53.174;6.368;2022-07-21T12:22:47;15.95;;;14.32;;
51838;SDS011;37886;53.174;6.368;2022-07-21T12:25:14;16.33;;;14.77;;
51838;SDS011;37886;53.174;6.368;2022-07-21T12:27:42;16.25;;;14.55;;
51838;SDS011;37886;53.174;6.368;2022-07-21T12:30:10;15.38;;;13.93;;
51838;SDS011;37886;53.174;6.368;2022-07-21T12:33:13;15.00;;;13.57;;
51838;SDS011;37886;53.174;6.368;2022-07-21T12:35:41;15.00;;;13.43;;
51838;SDS011;37886;53.174;6.368;2022-07-21T12:38:12;16.17;;;14.57;;
51838;SDS011;37886;53.174;6.368;2022-07-21T12:40:40;16.08;;;14.48;;
51838;SDS011;37886;53.174;6.368;2022-07-21T12:43:16;15.05;;;13.45;;
51838;SDS011;37886;53.174;6.368;2022-07-21T12:45:50;12.05;;;9.73;;
51838;SDS011;37886;53.174;6.368;2022-07-21T12:48:31;8.98;;;8.13;;
51838;SDS011;37886;53.174;6.368;2022-07-21T12:51:10;11.75;;;7.50;;
51838;SDS011;37886;53.174;6.368;2022-07-21T12:53:44;7.55;;;5.95;;
51838;SDS011;37886;53.174;6.368;2022-07-21T12:56:11;9.38;;;6.20;;
51838;SDS011;37886;53.174;6.368;2022-07-21T12:58:39;7.95;;;5.72;;
51838;SDS011;37886;53.174;6.368;2022-07-21T13:01:05;7.78;;;5.55;;
51838;SDS011;37886;53.174;6.368;2022-07-21T13:03:32;7.75;;;5.50;;
51838;SDS011;37886;53.174;6.368;2022-07-21T13:06:00;7.93;;;5.07;;
51838;SDS011;37886;53.174;6.368;2022-07-21T13:08:27;7.68;;;5.28;;
51838;SDS011;37886;53.174;6.368;2022-07-21T13:10:53;6.00;;;5.05;;
51838;SDS011;37886;53.174;6.368;2022-07-21T13:13:19;6.88;;;5.00;;
51838;SDS011;37886;53.174;6.368;2022-07-21T13:15:45;7.75;;;5.65;;
51838;SDS011;37886;53.174;6.368;2022-07-21T13:18:10;8.88;;;5.70;;
51838;SDS011;37886;53.174;6.368;2022-07-21T13:20:36;5.57;;;4.93;;
51838;SDS011;37886;53.174;6.368;2022-07-21T13:23:02;5.82;;;5.22;;
51838;SDS011;37886;53.174;6.368;2022-07-21T13:25:28;6.43;;;5.63;;
51838;SDS011;37886;53.174;6.368;2022-07-21T13:27:53;7.72;;;5.30;;
51838;SDS011;37886;53.174;6.368;2022-07-21T13:30:19;7.65;;;5.80;;
51838;SDS011;37886;53.174;6.368;2022-07-21T13:32:45;8.02;;;6.05;;
51838;SDS011;37886;53.174;6.368;2022-07-21T13:35:11;10.18;;;5.60;;
51838;SDS011;37886;53.174;6.368;2022-07-21T13:37:36;7.10;;;4.93;;
51838;SDS011;37886;53.174;6.368;2022-07-21T13:40:03;6.25;;;5.32;;
51838;SDS011;37886;53.174;6.368;2022-07-21T13:42:30;7.00;;;5.70;;
51838;SDS011;37886;53.174;6.368;2022-07-21T13:44:55;8.48;;;4.72;;
51838;SDS011;37886;53.174;6.368;2022-07-21T13:47:21;7.32;;;5.03;;
51838;SDS011;37886;53.174;6.368;2022-07-21T13:49:47;6.13;;;4.72;;
51838;SDS011;37886;53.174;6.368;2022-07-21T13:52:13;6.35;;;5.00;;
51838;SDS011;37886;53.174;6.368;2022-07-21T13:54:39;6.88;;;4.88;;
51838;SDS011;37886;53.174;6.368;2022-07-21T13:57:04;8.20;;;5.72;;
51838;SDS011;37886;53.174;6.368;2022-07-21T13:59:30;7.07;;;4.40;;
51838;SDS011;37886;53.174;6.368;2022-07-21T14:01:56;6.82;;;5.03;;
51838;SDS011;37886;53.174;6.368;2022-07-21T14:04:22;9.07;;;5.40;;
51838;SDS011;37886;53.174;6.368;2022-07-21T14:06:48;10.25;;;5.47;;
51838;SDS011;37886;53.174;6.368;2022-07-21T14:09:14;7.72;;;4.80;;
51838;SDS011;37886;53.174;6.368;2022-07-21T14:11:42;9.65;;;6.10;;
51838;SDS011;37886;53.174;6.368;2022-07-21T14:14:08;10.23;;;5.25;;
51838;SDS011;37886;53.174;6.368;2022-07-21T14:16:35;10.40;;;4.97;;
51838;SDS011;37886;53.174;6.368;2022-07-21T14:19:01;9.02;;;5.85;;
51838;SDS011;37886;53.174;6.368;2022-07-21T14:21:27;6.93;;;5.32;;
51838;SDS011;37886;53.174;6.368;2022-07-21T14:23:53;9.07;;;5.32;;
51838;SDS011;37886;53.174;6.368;2022-07-21T14:26:37;6.20;;;4.95;;
51838;SDS011;37886;53.174;6.368;2022-07-21T14:29:04;9.57;;;5.75;;
51838;SDS011;37886;53.174;6.368;2022-07-21T14:31:30;7.65;;;5.13;;
51838;SDS011;37886;53.174;6.368;2022-07-21T14:33:56;7.40;;;5.03;;
51838;SDS011;37886;53.174;6.368;2022-07-21T14:36:22;7.55;;;5.55;;
51838;SDS011;37886;53.174;6.368;2022-07-21T14:38:47;9.40;;;5.63;;
51838;SDS011;37886;53.174;6.368;2022-07-21T14:41:13;9.10;;;5.93;;
51838;SDS011;37886;53.174;6.368;2022-07-21T14:43:39;11.80;;;6.45;;
51838;SDS011;37886;53.174;6.368;2022-07-21T14:46:04;7.03;;;4.88;;
51838;SDS011;37886;53.174;6.368;2022-07-21T14:48:30;8.27;;;5.30;;
51838;SDS011;37886;53.174;6.368;2022-07-21T14:50:56;8.63;;;5.75;;
51838;SDS011;37886;53.174;6.368;2022-07-21T14:53:22;6.35;;;5.45;;
51838;SDS011;37886;53.174;6.368;2022-07-21T14:55:47;8.63;;;5.75;;
51838;SDS011;37886;53.174;6.368;2022-07-21T14:58:14;8.98;;;5.80;;
51838;SDS011;37886;53.174;6.368;2022-07-21T15:00:40;9.68;;;6.00;;
51838;SDS011;37886;53.174;6.368;2022-07-21T15:03:07;9.98;;;5.78;;
51838;SDS011;37886;53.174;6.368;2022-07-21T15:05:32;7.13;;;5.25;;
51838;SDS011;37886;53.174;6.368;2022-07-21T15:07:58;6.70;;;5.40;;
51838;SDS011;37886;53.174;6.368;2022-07-21T15:10:24;8.70;;;5.70;;